Time;durP1;ratioP1;P1;durP2;ratioP2;P2;SDS_P1;SDS_P2;PMS_P1;PMS_P2;Temp;Humidity;BMP_temperature;BMP_pressure;BME280_temperature;BME280_humidity;BME280_pressure;Samples;Min_cycle;Max_cycle;Signal;HPM_P1;HPM_P2
2024/03/31 00:00:19;;;;;;;17.38;13.80;;;;;;;7.88;94.58;99339.38;4999729;28;20050;-79
2024/03/31 00:02:46;;;;;;;15.88;12.82;;;;;;;7.87;95.10;99326.38;4998061;28;20058;-79
2024/03/31 00:05:12;;;;;;;17.15;13.50;;;;;;;7.88;95.70;99331.50;4997787;28;20133;-80
2024/03/31 00:07:40;;;;;;;15.75;13.27;;;;;;;7.96;95.13;99331.56;4997789;28;20086;-79
2024/03/31 00:10:06;;;;;;;16.50;12.73;;;;;;;8.06;94.48;99331.50;4997903;28;20109;-80
2024/03/31 00:12:33;;;;;;;15.23;11.90;;;;;;;8.01;94.49;99339.84;4997527;28;20097;-80
2024/03/31 00:14:58;;;;;;;14.68;12.75;;;;;;;7.92;94.33;99345.19;4997310;28;20450;-79
2024/03/31 00:17:25;;;;;;;15.02;13.05;;;;;;;7.92;94.91;99353.09;4997673;28;20092;-80
2024/03/31 00:19:51;;;;;;;17.30;13.88;;;;;;;7.95;94.87;99360.72;4998633;28;20054;-82
2024/03/31 00:22:18;;;;;;;17.33;13.82;;;;;;;7.89;95.33;99356.03;4990341;28;20113;-81
2024/03/31 00:24:45;;;;;;;16.15;13.88;;;;;;;7.84;94.58;99354.66;4999711;28;20057;-81
2024/03/31 00:27:12;;;;;;;17.20;13.45;;;;;;;7.86;94.16;99375.59;4991122;28;20084;-79
2024/03/31 00:29:38;;;;;;;17.27;13.63;;;;;;;7.79;94.88;99379.78;4998314;28;20107;-80
2024/03/31 00:32:05;;;;;;;16.95;13.93;;;;;;;7.81;94.33;99380.44;4999889;28;20082;-81
2024/03/31 00:34:31;;;;;;;16.48;13.13;;;;;;;7.80;94.60;99382.25;4998550;28;20129;-79
2024/03/31 00:36:58;;;;;;;16.58;13.90;;;;;;;7.77;94.70;99376.47;4997721;28;20088;-81
2024/03/31 00:39:23;;;;;;;16.88;14.63;;;;;;;7.74;95.23;99374.97;4998515;28;20114;-80
2024/03/31 00:41:52;;;;;;;16.08;13.18;;;;;;;7.74;95.62;99360.97;4992219;28;20090;-80
2024/03/31 00:44:17;;;;;;;15.10;12.65;;;;;;;7.68;95.58;99364.16;4998569;28;20488;-81
2024/03/31 00:46:44;;;;;;;17.08;13.20;;;;;;;7.68;95.61;99372.06;5001326;28;20056;-80
2024/03/31 00:49:09;;;;;;;16.15;13.23;;;;;;;7.63;95.82;99371.69;4989844;28;20097;-80
2024/03/31 00:51:36;;;;;;;18.42;13.07;;;;;;;7.67;95.55;99367.78;4998454;28;20140;-80
2024/03/31 00:54:02;;;;;;;16.40;13.10;;;;;;;7.65;95.24;99361.84;4982606;28;20114;-78
2024/03/31 00:56:28;;;;;;;16.80;13.30;;;;;;;7.64;95.54;99373.38;4997310;28;20096;-79
2024/03/31 00:58:56;;;;;;;17.35;13.95;;;;;;;7.62;95.68;99357.69;5001234;28;20516;-79
2024/03/31 01:01:23;;;;;;;18.50;14.15;;;;;;;7.59;95.35;99356.19;5003653;28;20052;-81
2024/03/31 01:03:48;;;;;;;16.65;13.80;;;;;;;7.66;95.12;99350.34;5003709;28;20149;-79
2024/03/31 01:06:18;;;;;;;16.33;13.35;;;;;;;7.64;95.22;99347.03;4995305;28;20047;-81
2024/03/31 01:08:44;;;;;;;18.25;13.05;;;;;;;7.69;95.61;99339.53;4999594;28;20110;-81
2024/03/31 01:11:11;;;;;;;16.85;12.85;;;;;;;7.69;95.75;99350.06;4999256;28;20110;-80
2024/03/31 01:13:37;;;;;;;16.65;13.60;;;;;;;7.65;95.04;99346.06;4999309;28;20061;-81
2024/03/31 01:16:06;;;;;;;19.88;14.07;;;;;;;7.59;95.58;99355.38;4991926;28;20526;-80
2024/03/31 01:18:32;;;;;;;16.95;13.77;;;;;;;7.74;94.82;99360.97;4998687;28;20054;-83
2024/03/31 01:20:59;;;;;;;15.25;12.63;;;;;;;7.67;94.90;99367.78;4999009;28;20105;-82
2024/03/31 01:23:28;;;;;;;15.00;13.32;;;;;;;7.55;94.91;99370.63;4999413;28;20177;-78
2024/03/31 01:25:58;;;;;;;18.40;14.00;;;;;;;7.54;95.11;99366.31;4998398;28;20472;-81
2024/03/31 01:28:24;;;;;;;16.27;13.48;;;;;;;7.57;94.64;99362.56;4999651;28;20054;-82
2024/03/31 01:30:51;;;;;;;14.88;12.30;;;;;;;7.50;95.80;99357.06;4998453;28;20061;-80
2024/03/31 01:33:16;;;;;;;16.17;13.02;;;;;;;7.50;95.43;99349.19;4999143;28;20126;-82
2024/03/31 01:35:44;;;;;;;15.82;13.05;;;;;;;7.40;95.92;99344.91;5000234;28;20469;-83
2024/03/31 01:38:10;;;;;;;16.23;12.93;;;;;;;7.43;95.93;99345.47;5004114;28;20061;-80
2024/03/31 01:40:36;;;;;;;16.05;12.85;;;;;;;7.38;96.36;99352.97;4992167;28;20051;-81
2024/03/31 01:43:04;;;;;;;14.23;11.73;;;;;;;7.43;95.52;99361.25;4991858;28;20660;-80
2024/03/31 01:45:30;;;;;;;15.68;12.30;;;;;;;7.46;95.44;99360.97;4999873;28;20078;-80
2024/03/31 01:47:56;;;;;;;15.88;11.88;;;;;;;7.38;96.17;99360.88;4991947;28;20050;-81
2024/03/31 01:50:23;;;;;;;15.93;11.88;;;;;;;7.52;95.52;99367.44;4997140;28;20053;-82
2024/03/31 01:52:48;;;;;;;13.90;11.85;;;;;;;7.53;94.81;99372.56;4992899;28;20497;-80
2024/03/31 01:55:15;;;;;;;14.93;11.90;;;;;;;7.57;95.17;99379.19;4995093;28;20108;-81
2024/03/31 01:57:41;;;;;;;13.63;10.80;;;;;;;7.55;95.46;99380.34;4998803;28;20050;-80
2024/03/31 02:00:10;;;;;;;16.23;11.27;;;;;;;7.49;95.42;99376.44;4999187;28;20057;-82
2024/03/31 02:02:36;;;;;;;12.52;10.73;;;;;;;7.53;94.73;99372.56;4999446;28;20081;-81
2024/03/31 02:05:03;;;;;;;12.90;11.35;;;;;;;7.45;94.63;99369.81;5000145;28;20042;-80
2024/03/31 02:07:29;;;;;;;13.13;10.60;;;;;;;7.33;95.05;99374.47;4999788;28;20051;-81
2024/03/31 02:09:55;;;;;;;12.88;10.63;;;;;;;7.40;94.79;99371.25;4998499;28;20105;-82
2024/03/31 02:12:21;;;;;;;13.38;10.05;;;;;;;7.48;94.22;99380.06;4999191;28;20081;-81
2024/03/31 02:14:48;;;;;;;14.70;10.88;;;;;;;7.53;95.03;99380.47;4995189;28;20050;-80
2024/03/31 02:17:15;;;;;;;15.23;11.63;;;;;;;7.60;94.37;99388.63;4999826;28;20532;-80
2024/03/31 02:19:41;;;;;;;14.30;11.45;;;;;;;7.63;94.22;99400.66;4996540;28;20062;-81
2024/03/31 02:22:07;;;;;;;15.65;11.18;;;;;;;7.63;94.36;99395.38;4999115;28;20221;-81
2024/03/31 02:24:33;;;;;;;16.40;11.70;;;;;;;7.66;95.24;99392.47;4998136;28;20078;-82
2024/03/31 02:26:59;;;;;;;15.90;12.18;;;;;;;7.70;94.49;99399.94;4997881;28;20081;-82
2024/03/31 02:29:26;;;;;;;16.38;12.77;;;;;;;7.74;95.21;99392.56;4998413;28;20057;-81
2024/03/31 02:31:52;;;;;;;21.00;14.18;;;;;;;7.78;94.57;99370.22;4998823;28;20129;-80
2024/03/31 02:34:19;;;;;;;17.77;13.18;;;;;;;7.79;94.64;99374.53;4998297;28;20070;-81
2024/03/31 02:36:48;;;;;;;19.90;13.23;;;;;;;7.84;94.78;99369.63;4997528;28;20137;-81
2024/03/31 02:39:15;;;;;;;16.42;13.18;;;;;;;7.86;95.06;99357.16;4998084;28;20050;-82
2024/03/31 02:41:41;;;;;;;18.50;13.45;;;;;;;7.91;94.61;99360.19;4998522;28;20104;-80
2024/03/31 02:44:07;;;;;;;18.00;12.98;;;;;;;7.94;95.39;99370.41;4998921;28;20046;-82
2024/03/31 02:46:33;;;;;;;16.83;12.82;;;;;;;7.94;96.02;99365.13;4990346;28;20074;-81
2024/03/31 02:49:02;;;;;;;17.20;13.25;;;;;;;7.98;95.83;99368.28;4998567;28;20081;-81
2024/03/31 02:51:29;;;;;;;19.45;13.18;;;;;;;7.99;94.80;99362.03;4990021;28;20050;-82
2024/03/31 02:53:56;;;;;;;17.35;12.88;;;;;;;8.08;95.03;99355.88;4998752;28;20130;-81
2024/03/31 02:56:21;;;;;;;16.35;13.15;;;;;;;8.05;94.70;99357.03;4989534;28;20093;-82
2024/03/31 02:58:48;;;;;;;20.10;13.15;;;;;;;7.98;95.34;99345.41;4984512;28;20138;-80
2024/03/31 03:01:13;;;;;;;19.35;12.63;;;;;;;7.97;95.80;99335.84;4995666;28;20060;-81
2024/03/31 03:03:40;;;;;;;19.33;13.48;;;;;;;7.98;96.08;99340.16;4998276;28;20505;-82
2024/03/31 03:06:06;;;;;;;19.60;13.13;;;;;;;7.97;96.51;99343.75;4999585;28;20054;-79
2024/03/31 03:08:34;;;;;;;16.83;12.63;;;;;;;7.99;96.92;99347.09;4990884;28;20051;-80
2024/03/31 03:11:03;;;;;;;17.98;11.75;;;;;;;8.03;97.14;99358.97;4998797;28;20109;-80
2024/03/31 03:13:29;;;;;;;18.45;11.38;;;;;;;8.11;97.59;99372.22;4998859;28;20104;-80
2024/03/31 03:15:55;;;;;;;23.98;12.23;;;;;;;8.14;96.86;99359.75;4998704;28;20575;-78
2024/03/31 03:18:22;;;;;;;16.98;9.95;;;;;;;8.17;96.52;99369.97;4998556;28;20089;-81
2024/03/31 03:20:48;;;;;;;14.25;9.27;;;;;;;8.21;96.72;99356.34;4998766;28;20110;-79
2024/03/31 03:23:15;;;;;;;18.13;9.07;;;;;;;8.22;96.32;99362.47;4998654;28;20481;-80
2024/03/31 03:25:42;;;;;;;19.00;9.07;;;;;;;8.23;97.02;99353.56;4991994;28;20069;-79
2024/03/31 03:28:08;;;;;;;16.52;8.95;;;;;;;8.21;97.24;99353.69;4999329;28;20054;-79
2024/03/31 03:30:37;;;;;;;13.15;8.95;;;;;;;8.20;97.22;99353.88;4992613;28;20102;-78
2024/03/31 03:33:04;;;;;;;17.50;9.63;;;;;;;8.18;97.33;99350.56;5002271;28;20150;-80
2024/03/31 03:35:30;;;;;;;22.02;9.13;;;;;;;8.19;97.39;99346.94;5000420;28;20090;-81
2024/03/31 03:37:58;;;;;;;20.85;9.68;;;;;;;8.20;98.22;99344.16;5019367;23;20120;-79
2024/03/31 03:40:24;;;;;;;12.95;9.43;;;;;;;8.22;98.09;99346.66;5000506;28;20092;-79
2024/03/31 03:42:52;;;;;;;18.95;9.32;;;;;;;8.22;97.89;99336.09;5000299;28;20501;-79
2024/03/31 03:45:19;;;;;;;16.85;9.52;;;;;;;8.23;97.47;99321.94;5000254;28;20074;-79
2024/03/31 03:47:45;;;;;;;13.55;9.50;;;;;;;8.30;97.12;99304.53;5000692;28;20084;-80
2024/03/31 03:50:11;;;;;;;19.55;10.00;;;;;;;8.29;97.07;99290.53;4999081;28;20070;-79
2024/03/31 03:52:37;;;;;;;16.33;9.38;;;;;;;8.32;97.16;99292.03;4996377;28;20154;-80
2024/03/31 03:55:04;;;;;;;17.50;8.85;;;;;;;8.35;96.60;99297.84;4996231;28;20065;-79
2024/03/31 03:57:30;;;;;;;17.95;8.45;;;;;;;8.36;96.53;99306.56;4998463;28;20096;-78
2024/03/31 03:59:58;;;;;;;14.02;7.15;;;;;;;8.43;95.49;99310.25;4996074;28;20054;-79
2024/03/31 04:02:24;;;;;;;16.60;7.00;;;;;;;8.43;95.89;99312.91;4996312;28;20050;-78
2024/03/31 04:04:51;;;;;;;12.80;7.07;;;;;;;8.45;96.30;99312.78;4995205;28;20488;-78
2024/03/31 04:07:17;;;;;;;18.80;6.88;;;;;;;8.41;96.44;99299.06;4995887;28;20054;-78
2024/03/31 04:09:44;;;;;;;10.85;6.65;;;;;;;8.43;96.07;99312.91;4999118;28;20042;-80
2024/03/31 04:12:10;;;;;;;15.73;6.47;;;;;;;8.46;97.15;99327.59;4998069;28;20050;-79
2024/03/31 04:14:36;;;;;;;13.07;6.75;;;;;;;8.35;96.69;99307.56;4996786;28;20408;-78
2024/03/31 04:17:04;;;;;;;13.70;6.40;;;;;;;8.33;97.42;99312.13;4989251;28;20125;-77
2024/03/31 04:19:30;;;;;;;15.73;8.13;;;;;;;8.29;97.05;99294.97;4995606;28;20046;-78
2024/03/31 04:21:56;;;;;;;16.23;7.13;;;;;;;8.31;96.85;99293.03;4988295;28;20470;-80
2024/03/31 04:24:22;;;;;;;14.73;7.40;;;;;;;8.29;97.28;99290.53;4988795;28;20047;-77
2024/03/31 04:26:48;;;;;;;15.13;7.15;;;;;;;8.27;97.90;99286.41;4989327;28;20105;-78
2024/03/31 04:29:15;;;;;;;18.50;7.80;;;;;;;8.32;98.28;99310.50;4988199;28;20490;-79
2024/03/31 04:31:53;;;;;;;13.98;7.70;;;;;;;8.31;98.31;99314.13;4982797;28;20129;-78
2024/03/31 04:34:21;;;;;;;14.30;7.18;;;;;;;8.30;97.23;99309.81;4988529;28;20082;-79
2024/03/31 04:36:49;;;;;;;11.82;7.40;;;;;;;8.32;97.63;99308.69;4989366;28;20105;-77
2024/03/31 04:39:15;;;;;;;18.98;7.57;;;;;;;8.27;97.87;99296.94;4989710;28;20043;-77
2024/03/31 04:41:41;;;;;;;11.30;7.57;;;;;;;8.28;97.67;99293.31;4992352;28;20492;-79
2024/03/31 04:44:08;;;;;;;18.05;7.57;;;;;;;8.26;98.57;99295.25;4995489;28;20051;-81
2024/03/31 04:46:33;;;;;;;15.85;8.38;;;;;;;8.28;98.43;99299.41;4977903;28;20050;-77
2024/03/31 04:49:00;;;;;;;16.77;8.48;;;;;;;8.29;97.93;99294.97;4985253;28;20046;-79
2024/03/31 04:51:28;;;;;;;16.65;8.13;;;;;;;8.35;98.33;99300.47;4986962;28;20054;-78
2024/03/31 04:53:54;;;;;;;15.48;7.15;;;;;;;8.33;98.38;99288.41;4985874;28;20114;-78
2024/03/31 04:56:20;;;;;;;16.52;8.02;;;;;;;8.34;98.13;99261.06;4986466;28;20078;-78
2024/03/31 04:58:46;;;;;;;16.30;7.60;;;;;;;8.43;97.83;99265.44;4984271;28;20136;-78
2024/03/31 05:01:12;;;;;;;18.42;7.38;;;;;;;8.41;98.22;99287.69;4985365;28;20062;-80
2024/03/31 05:03:38;;;;;;;19.08;7.25;;;;;;;8.40;98.42;99275.50;4983541;28;20078;-80
2024/03/31 05:06:05;;;;;;;11.35;7.20;;;;;;;8.40;98.32;99276.31;4991259;28;20124;-79
2024/03/31 05:08:33;;;;;;;16.02;7.00;;;;;;;8.45;98.63;99266.13;4991044;28;20580;-80
2024/03/31 05:11:00;;;;;;;15.15;7.03;;;;;;;8.47;98.24;99272.06;4998419;28;20050;-76
2024/03/31 05:13:27;;;;;;;15.70;7.32;;;;;;;8.46;98.88;99280.97;4996777;28;20046;-79
2024/03/31 05:16:00;;;;;;;15.02;7.82;;;;;;;8.48;98.79;99279.03;5001062;28;20050;-79
2024/03/31 05:18:25;;;;;;;;;;;;;;;8.48;98.76;99278.16;4996818;28;20536;-79
2024/03/31 05:20:57;;;;;;;14.48;7.63;;;;;;;8.48;99.19;99281.66;4990191;28;19922;-77
2024/03/31 05:23:23;;;;;;;20.48;7.57;;;;;;;8.48;99.26;99279.03;4984448;28;20050;-78
2024/03/31 05:25:52;;;;;;;16.20;7.15;;;;;;;8.49;99.03;99282.47;4991719;28;20100;-79
2024/03/31 05:28:18;;;;;;;16.60;7.28;;;;;;;8.49;99.28;99280.69;4989321;28;20058;-79
2024/03/31 05:30:44;;;;;;;16.48;6.93;;;;;;;8.49;99.38;99275.41;4987260;28;20082;-80
2024/03/31 05:33:10;;;;;;;14.25;7.30;;;;;;;8.53;99.96;99281.19;4986190;28;20078;-79
2024/03/31 05:35:37;;;;;;;16.40;6.93;;;;;;;8.53;99.64;99278.56;4988140;28;20519;-79
2024/03/31 05:38:03;;;;;;;18.33;8.25;;;;;;;8.55;99.95;99269.50;4980847;28;20077;-80
2024/03/31 05:40:30;;;;;;;15.93;6.72;;;;;;;8.54;100.00;99270.50;4988599;28;20081;-79
2024/03/31 05:42:57;;;;;;;14.85;6.75;;;;;;;8.57;100.00;99267.56;4986717;28;20081;-78
2024/03/31 05:45:23;;;;;;;18.67;6.97;;;;;;;8.58;99.93;99261.28;4988158;28;20053;-78
2024/03/31 05:47:49;;;;;;;16.15;7.40;;;;;;;8.62;99.89;99261.81;4986426;28;20129;-78
2024/03/31 05:50:16;;;;;;;17.85;7.18;;;;;;;8.61;100.00;99268.88;4987922;28;20126;-79
2024/03/31 05:52:41;;;;;;;18.10;6.40;;;;;;;8.61;100.00;99270.69;4994411;28;20438;-78
2024/03/31 05:55:08;;;;;;;13.75;6.43;;;;;;;8.66;99.84;99270.22;4993957;28;20088;-77
2024/03/31 05:57:34;;;;;;;15.07;6.88;;;;;;;8.68;99.96;99265.63;4989107;28;20155;-77
2024/03/31 06:00:03;;;;;;;14.23;6.22;;;;;;;8.70;99.72;99266.28;4990863;28;20065;-80
2024/03/31 06:02:30;;;;;;;20.05;6.10;;;;;;;8.70;100.00;99268.91;4991014;28;20059;-80
2024/03/31 06:04:58;;;;;;;15.73;6.13;;;;;;;8.75;100.00;99267.50;4985567;28;20070;-80
2024/03/31 06:07:24;;;;;;;15.20;6.25;;;;;;;8.75;99.47;99256.09;4987274;28;20105;-78
2024/03/31 06:09:51;;;;;;;20.05;6.97;;;;;;;8.78;99.30;99268.97;4994669;28;20466;-78
2024/03/31 06:12:16;;;;;;;16.90;6.45;;;;;;;8.74;99.17;99263.19;4995150;28;20082;-78
2024/03/31 06:14:43;;;;;;;19.00;6.93;;;;;;;8.79;99.30;99260.91;4994752;28;20042;-79
2024/03/31 06:17:10;;;;;;;14.48;5.82;;;;;;;8.89;99.28;99267.91;4995213;28;20054;-79
2024/03/31 06:19:37;;;;;;;16.65;6.35;;;;;;;9.00;98.50;99265.81;4985747;28;20051;-78
2024/03/31 06:22:02;;;;;;;17.35;6.47;;;;;;;9.15;97.92;99259.91;4989667;28;20057;-78
2024/03/31 06:24:29;;;;;;;15.55;6.25;;;;;;;9.23;97.30;99262.59;4990106;28;20058;-78
2024/03/31 06:26:55;;;;;;;13.90;5.95;;;;;;;9.35;96.85;99275.34;4988663;28;20055;-79
2024/03/31 06:29:22;;;;;;;12.95;5.85;;;;;;;9.57;96.57;99270.47;4990202;28;20055;-79
2024/03/31 06:31:47;;;;;;;14.50;5.97;;;;;;;10.28;92.43;99266.47;4986412;28;20054;-80
2024/03/31 06:34:15;;;;;;;17.65;6.57;;;;;;;11.42;87.05;99263.50;4993782;28;20064;-78
2024/03/31 06:36:41;;;;;;;19.58;6.30;;;;;;;12.19;82.33;99249.44;4983722;28;20057;-77
2024/03/31 06:39:08;;;;;;;18.15;5.72;;;;;;;12.49;80.40;99245.03;4987182;28;20129;-77
2024/03/31 06:41:33;;;;;;;13.77;4.80;;;;;;;12.86;79.60;99252.97;4997390;28;20054;-79
2024/03/31 06:44:00;;;;;;;11.93;4.60;;;;;;;13.29;77.70;99247.00;4991125;28;20420;-78
2024/03/31 06:46:26;;;;;;;9.32;4.55;;;;;;;13.28;77.01;99246.19;4992040;28;20133;-79
2024/03/31 06:48:52;;;;;;;15.32;4.75;;;;;;;13.25;76.93;99251.03;4990188;28;20153;-78
2024/03/31 06:51:19;;;;;;;16.40;4.88;;;;;;;12.40;79.55;99257.56;4989500;28;20119;-78
2024/03/31 06:53:47;;;;;;;14.32;5.80;;;;;;;11.45;84.32;99257.88;4987505;28;20122;-78
2024/03/31 06:56:12;;;;;;;13.63;4.93;;;;;;;11.05;86.67;99254.41;4985955;28;20046;-78
2024/03/31 06:58:39;;;;;;;13.20;5.25;;;;;;;10.99;87.22;99251.63;4996883;28;20081;-78
2024/03/31 07:01:05;;;;;;;11.65;4.38;;;;;;;10.97;87.14;99250.94;4995649;28;20077;-77
2024/03/31 07:03:31;;;;;;;11.65;4.07;;;;;;;10.84;88.13;99252.31;4992479;28;20501;-78
2024/03/31 07:05:57;;;;;;;11.68;4.97;;;;;;;11.09;87.11;99245.13;4990741;28;20526;-78
2024/03/31 07:08:25;;;;;;;9.88;4.43;;;;;;;11.46;85.91;99243.63;4993356;28;20090;-80
2024/03/31 07:10:51;;;;;;;14.75;4.60;;;;;;;11.58;85.38;99247.53;4992813;28;20308;-79
2024/03/31 07:13:17;;;;;;;16.45;4.60;;;;;;;11.42;85.48;99244.97;5001507;28;20109;-79
2024/03/31 07:15:43;;;;;;;13.88;4.20;;;;;;;11.58;84.67;99244.88;4999519;28;20391;-79
2024/03/31 07:18:11;;;;;;;13.57;5.57;;;;;;;11.30;85.74;99238.41;4994620;28;20466;-79
2024/03/31 07:20:37;;;;;;;11.32;4.35;;;;;;;11.03;86.70;99234.41;4990709;28;20047;-80
2024/03/31 07:23:05;;;;;;;11.82;4.38;;;;;;;10.84;87.26;99230.31;4993531;28;20054;-78
2024/03/31 07:25:33;;;;;;;17.08;5.03;;;;;;;10.77;87.98;99224.88;4988235;28;20137;-81
2024/03/31 07:27:59;;;;;;;13.13;4.40;;;;;;;10.70;88.53;99231.00;4985275;28;20073;-79
2024/03/31 07:30:25;;;;;;;14.52;4.07;;;;;;;10.71;88.99;99225.53;4995194;28;20462;-81
2024/03/31 07:32:52;;;;;;;20.05;4.75;;;;;;;10.80;88.52;99226.34;5001385;28;20061;-80
2024/03/31 07:35:18;;;;;;;17.40;4.40;;;;;;;10.77;89.04;99226.72;4997877;28;20065;-79
2024/03/31 07:37:45;;;;;;;11.05;3.92;;;;;;;10.90;88.16;99232.28;5002090;28;20062;-80
2024/03/31 07:40:11;;;;;;;14.75;4.25;;;;;;;10.99;87.99;99225.97;4999297;28;20070;-78
2024/03/31 07:42:39;;;;;;;16.13;4.72;;;;;;;11.05;87.75;99224.44;5002811;28;20046;-78
2024/03/31 07:45:06;;;;;;;16.08;4.82;;;;;;;11.14;87.17;99212.81;4991986;28;20050;-80
2024/03/31 07:47:33;;;;;;;13.48;4.80;;;;;;;11.48;85.76;99217.78;4998573;28;20057;-78
2024/03/31 07:49:59;;;;;;;13.43;4.38;;;;;;;11.89;83.62;99212.25;4995012;28;20050;-77
2024/03/31 07:52:26;;;;;;;15.25;4.38;;;;;;;12.70;81.19;99212.47;4986620;28;20050;-79
2024/03/31 07:54:52;;;;;;;14.57;4.53;;;;;;;12.97;77.98;99219.81;4982219;28;20130;-81
2024/03/31 07:57:18;;;;;;;14.07;3.88;;;;;;;13.22;77.33;99219.50;4991660;28;20082;-79
2024/03/31 07:59:46;;;;;;;12.93;4.32;;;;;;;13.70;76.48;99217.19;5001402;28;20120;-79
2024/03/31 08:02:14;;;;;;;13.00;3.78;;;;;;;14.53;72.92;99219.19;4994948;28;20064;-79
2024/03/31 08:04:39;;;;;;;12.48;4.10;;;;;;;14.79;70.35;99220.38;4996958;28;20137;-80
2024/03/31 08:07:06;;;;;;;13.27;3.78;;;;;;;14.28;70.76;99225.91;4988105;28;20078;-78
2024/03/31 08:09:32;;;;;;;9.50;3.80;;;;;;;14.37;71.57;99216.75;4998620;28;20050;-79
2024/03/31 08:11:59;;;;;;;15.43;4.18;;;;;;;14.40;69.88;99209.22;4998032;28;20147;-82
2024/03/31 08:14:24;;;;;;;14.35;4.07;;;;;;;14.61;69.99;99208.38;4999354;28;20077;-79
2024/03/31 08:16:52;;;;;;;9.98;3.78;;;;;;;14.18;70.66;99206.78;4996468;28;20054;-80
2024/03/31 08:19:18;;;;;;;15.45;3.95;;;;;;;14.15;70.77;99208.84;4995495;28;20149;-80
2024/03/31 08:21:44;;;;;;;12.93;3.80;;;;;;;14.26;70.70;99201.34;4986772;28;20050;-77
2024/03/31 08:24:10;;;;;;;10.30;4.15;;;;;;;14.03;71.30;99210.38;4990784;28;20049;-80
2024/03/31 08:26:37;;;;;;;10.45;3.80;;;;;;;14.24;71.58;99208.69;4991859;28;20428;-78
2024/03/31 08:29:03;;;;;;;10.60;3.55;;;;;;;14.62;70.29;99202.03;4988710;28;20046;-80
2024/03/31 08:31:33;;;;;;;10.25;3.65;;;;;;;14.70;70.01;99195.72;4991609;28;20054;-78
2024/03/31 08:34:00;;;;;;;13.68;3.55;;;;;;;14.74;69.12;99185.53;4987824;28;20137;-80
2024/03/31 08:36:26;;;;;;;12.50;4.18;;;;;;;14.65;69.29;99184.84;4988851;28;20509;-79
2024/03/31 08:38:52;;;;;;;17.73;4.20;;;;;;;14.48;69.81;99178.16;4989611;28;20113;-78
2024/03/31 08:41:34;;;;;;;11.75;3.85;;;;;;;14.86;68.64;99170.59;4995548;28;20054;-80
2024/03/31 08:44:03;;;;;;;9.70;3.70;;;;;;;15.11;67.87;99168.25;4994209;28;20051;-79
2024/03/31 08:46:30;;;;;;;15.32;4.20;;;;;;;14.69;67.48;99174.59;4992397;28;20472;-81
2024/03/31 08:48:56;;;;;;;13.40;3.55;;;;;;;14.89;66.67;99176.38;4998255;28;20078;-79
2024/03/31 08:51:24;;;;;;;12.68;3.75;;;;;;;14.97;67.45;99171.91;5002506;28;20077;-80
2024/03/31 08:53:52;;;;;;;12.52;3.97;;;;;;;14.86;66.03;99170.59;5004980;28;20051;-79
2024/03/31 08:56:18;;;;;;;14.65;3.88;;;;;;;14.63;65.53;99173.56;4993558;28;20465;-79
2024/03/31 08:58:44;;;;;;;9.05;3.60;;;;;;;14.96;66.66;99175.59;4995392;28;20118;-79
2024/03/31 09:01:14;;;;;;;11.80;4.13;;;;;;;14.85;64.89;99169.78;5000893;28;20054;-79
2024/03/31 09:03:40;;;;;;;11.57;3.78;;;;;;;15.11;64.42;99171.75;4996518;28;20047;-79
2024/03/31 09:06:07;;;;;;;10.93;3.70;;;;;;;15.31;64.29;99169.16;4992025;28;20509;-79
2024/03/31 09:08:34;;;;;;;12.38;3.30;;;;;;;15.26;64.15;99168.09;4989141;28;20054;-80
2024/03/31 09:11:03;;;;;;;11.77;3.80;;;;;;;15.32;64.26;99162.81;4997850;28;20074;-79
2024/03/31 09:13:32;;;;;;;14.13;3.22;;;;;;;15.21;63.85;99168.69;4998318;28;20050;-79
2024/03/31 09:15:59;;;;;;;17.20;3.90;;;;;;;15.29;63.91;99165.03;4993467;28;20573;-78
2024/03/31 09:18:25;;;;;;;9.50;3.10;;;;;;;15.23;64.34;99166.69;4993057;28;20457;-79
2024/03/31 09:20:51;;;;;;;9.30;3.20;;;;;;;15.52;63.99;99156.69;4989713;28;20081;-79
2024/03/31 09:23:17;;;;;;;10.35;3.92;;;;;;;15.88;61.63;99157.16;4991265;28;20057;-79
2024/03/31 09:25:45;;;;;;;14.82;3.55;;;;;;;16.34;60.81;99152.81;4996155;28;20070;-79
2024/03/31 09:28:11;;;;;;;10.30;3.10;;;;;;;16.09;60.48;99158.81;4994149;28;20097;-78
2024/03/31 09:30:40;;;;;;;8.65;3.45;;;;;;;15.54;61.69;99157.31;5001586;28;20050;-77
2024/03/31 09:33:06;;;;;;;10.93;3.90;;;;;;;15.77;60.96;99149.78;4990094;28;20137;-79
2024/03/31 09:35:33;;;;;;;11.27;3.10;;;;;;;15.50;61.53;99156.91;4990602;28;20082;-80
2024/03/31 09:40:35;;;;;;;15.13;3.45;;;;;;;15.64;61.41;99153.25;5109831;23;20058;-80
2024/03/31 09:43:03;;;;;;;10.50;3.42;;;;;;;15.44;60.78;99152.34;5002650;28;20477;-80
2024/03/31 09:45:30;;;;;;;15.07;2.97;;;;;;;15.13;62.06;99150.22;5002624;28;20129;-81
2024/03/31 09:48:02;;;;;;;11.95;3.30;;;;;;;15.39;62.23;99144.97;5002830;28;20113;-80
2024/03/31 09:50:37;;;;;;;13.30;4.35;;;;;;;15.62;60.74;99149.91;5003516;28;20078;-81
2024/03/31 09:53:08;;;;;;;10.52;3.47;;;;;;;15.77;59.68;99151.63;5003673;28;20084;-82
2024/03/31 09:55:41;;;;;;;10.13;3.45;;;;;;;15.97;58.98;99147.09;5005366;28;20061;-81
2024/03/31 09:58:12;;;;;;;13.68;3.72;;;;;;;15.99;59.25;99147.75;5004803;28;20096;-79
2024/03/31 10:00:41;;;;;;;11.10;3.00;;;;;;;15.81;60.01;99148.34;5004309;28;20117;-81
2024/03/31 10:03:16;;;;;;;12.52;3.13;;;;;;;15.72;58.19;99140.75;5004592;28;20054;-82
2024/03/31 10:05:47;;;;;;;9.65;3.03;;;;;;;15.71;57.52;99136.44;5004884;28;20101;-82
2024/03/31 10:08:21;;;;;;;18.55;3.70;;;;;;;15.84;56.18;99128.44;5004799;28;20058;-81
2024/03/31 10:10:51;;;;;;;11.30;4.15;;;;;;;15.79;56.38;99123.72;5002428;28;20464;-80
2024/03/31 10:13:30;;;;;;;17.55;3.20;;;;;;;15.97;55.43;99128.44;5003608;28;20118;-82
2024/03/31 10:16:07;;;;;;;12.10;3.05;;;;;;;16.14;54.69;99126.16;5003597;28;20050;-81
2024/03/31 10:18:37;;;;;;;10.25;3.15;;;;;;;16.29;53.76;99137.44;4986542;28;20058;-81
2024/03/31 10:21:06;;;;;;;11.45;2.92;;;;;;;16.32;53.02;99130.88;5001327;28;20050;-79
2024/03/31 10:23:33;;;;;;;13.25;3.50;;;;;;;16.48;53.37;99138.44;4994965;28;20050;-81
2024/03/31 10:26:02;;;;;;;9.90;3.00;;;;;;;16.80;53.66;99142.06;5002942;28;20057;-80
2024/03/31 10:28:33;;;;;;;7.07;2.28;;;;;;;16.89;52.10;99140.81;4992005;28;20047;-81
2024/03/31 10:31:01;;;;;;;8.68;2.95;;;;;;;16.75;52.03;99138.41;4982550;28;20055;-81
2024/03/31 10:33:28;;;;;;;6.38;2.35;;;;;;;16.79;52.52;99129.75;4983134;28;20070;-81
2024/03/31 10:35:59;;;;;;;10.13;2.90;;;;;;;17.11;51.45;99132.50;4982973;28;20046;-80
2024/03/31 10:38:25;;;;;;;14.63;2.95;;;;;;;17.32;51.13;99120.63;4983629;28;20077;-82
2024/03/31 10:40:52;;;;;;;11.10;2.88;;;;;;;17.11;50.16;99122.63;4996475;28;20059;-82
2024/03/31 10:43:19;;;;;;;8.90;3.20;;;;;;;17.11;48.58;99127.16;5002318;28;20085;-79
2024/03/31 10:45:47;;;;;;;9.00;2.50;;;;;;;17.07;49.76;99125.94;5000868;28;20054;-79
2024/03/31 10:48:14;;;;;;;9.30;2.58;;;;;;;17.01;50.92;99121.41;5000474;28;20105;-80
2024/03/31 10:50:45;;;;;;;8.35;3.25;;;;;;;16.72;50.01;99123.59;5001488;28;20050;-80
2024/03/31 10:53:24;;;;;;;8.55;2.75;;;;;;;17.10;51.45;99115.63;5001696;28;20054;-80
2024/03/31 10:55:52;;;;;;;11.40;2.75;;;;;;;17.39;50.08;99116.06;5001578;28;20078;-82
2024/03/31 10:58:18;;;;;;;8.02;2.42;;;;;;;17.75;49.59;99114.63;5002019;28;20094;-81
2024/03/31 11:00:47;;;;;;;10.55;2.70;;;;;;;17.93;48.14;99102.09;5000943;28;20061;-82
2024/03/31 11:03:13;;;;;;;8.18;2.35;;;;;;;17.57;46.40;99110.81;5001439;28;20062;-81
2024/03/31 11:05:40;;;;;;;7.18;3.05;;;;;;;17.39;46.64;99108.88;5002184;28;20055;-82
2024/03/31 11:08:08;;;;;;;9.95;2.95;;;;;;;17.62;46.63;99107.47;5004374;28;20086;-80
2024/03/31 11:10:39;;;;;;;8.45;2.58;;;;;;;18.11;44.87;99103.19;5006195;28;20061;-82
2024/03/31 11:13:05;;;;;;;7.72;2.58;;;;;;;17.61;45.65;99095.97;5003253;28;20066;-82
2024/03/31 11:15:35;;;;;;;6.00;2.58;;;;;;;17.43;44.87;99093.22;5000777;28;20050;-80
2024/03/31 11:18:05;;;;;;;10.48;2.67;;;;;;;17.33;44.98;99093.69;5000524;28;20057;-83
2024/03/31 11:20:42;;;;;;;9.75;3.10;;;;;;;17.26;44.80;99092.09;5000758;28;20054;-79
2024/03/31 11:23:12;;;;;;;15.07;3.13;;;;;;;17.36;45.00;99098.59;5002881;28;20107;-79
2024/03/31 11:25:41;;;;;;;10.15;3.53;;;;;;;17.57;45.85;99100.09;5002007;28;20077;-81
2024/03/31 11:28:08;;;;;;;7.80;2.45;;;;;;;17.52;46.28;99105.28;5004629;28;20061;-77
2024/03/31 11:30:35;;;;;;;9.93;2.88;;;;;;;17.60;44.68;99099.69;5003512;28;20046;-80